OICS  Sanandaj  Airport

Iran

Add Bookmark
ICAO OICS
IATA SDG
Type Airport
Status Operational
Latitude
35° 14' 45" N
35.245899
Longitude
47° 0' 33" E
47.009201
Local (GMT +3.5 ) UTC
Sep 30, 2016 04:55 pm Sep 30, 2016 13:25
Sunrise-Sunset Local UTC
Begin Civil Twilight 05:49 am 02:19
Sunrise 06:15 am 02:45
Sunset 06:08 pm 14:38
End Civil Twilight 06:33 pm 15:03
VFR
VFR
MVFR
MVFR
IFR
IFR
LIFR
LIFR
Unknown
Unavailable

Current Weather

METAR Observed VFR
OICS 301254Z 28006KT CAVOK 26/M07 Q1010 Fri, Sep 30, 2016 @ 12:54 UTC
(31 Minutes ago)
Visual Flight Rules
Wind Visibility Conditions
280° at 6 knots (11 kph) 10 km or more
  • No significant weather
Temperatures Readings Precipitation
Current Temp
26°C
79°F
Dewpoint
-7°C
19°F
Humidity 11%
Altimeter 29.82" Hg
Sea Level Pressure 1,010 mb
Field Elevation
1,373 m
4,505 ft
None Recorded
-
-

CheckWX.com is intended as a tool to help pilots better visualize weather data. It is not intended as a substitute for an official weather briefing obtained from a Flight Service Station. CheckWX.com does not meet the FAA requirements for an official pre-flight weather briefing. Therefore, it's important that pilots still call and obtain an official FSS pre-flight weather briefing.

© 2007-2016 CheckWX.com
13:25:42 UTC